Time;durP1;ratioP1;P1;durP2;ratioP2;P2;SDS_P1;SDS_P2;PMS_P1;PMS_P2;Temp;Humidity;BMP_temperature;BMP_pressure;BME280_temperature;BME280_humidity;BME280_pressure;Samples;Min_cycle;Max_cycle;Signal;HPM_P1;HPM_P2
2021/03/19 00:02:08;;;;;;;3.03;2.47;;;2.50;99.90;;;;;;4994822;28;20662;-67
2021/03/19 00:04:34;;;;;;;2.83;2.50;;;2.50;99.90;;;;;;4988771;28;21255;-67
2021/03/19 00:07:10;;;;;;;2.67;2.47;;;2.40;99.90;;;;;;5005184;28;20719;-67
2021/03/19 00:09:41;;;;;;;3.40;2.57;;;2.40;99.90;;;;;;5014984;28;20195;-67
2021/03/19 00:12:11;;;;;;;3.63;2.43;;;2.40;99.90;;;;;;5019235;28;20632;-67
2021/03/19 00:14:44;;;;;;;4.13;2.87;;;2.30;99.90;;;;;;4979015;28;20659;-67
2021/03/19 00:17:15;;;;;;;2.50;2.30;;;2.30;99.90;;;;;;4982688;28;21074;-67
2021/03/19 00:19:46;;;;;;;3.40;2.33;;;2.30;99.90;;;;;;4983624;28;20618;-67
2021/03/19 00:22:11;;;;;;;2.43;2.23;;;2.30;99.90;;;;;;5002191;28;21053;-67
2021/03/19 00:24:37;;;;;;;3.20;2.70;;;2.30;99.90;;;;;;5003923;28;20621;-67
2021/03/19 00:27:10;;;;;;;3.13;2.73;;;2.30;99.90;;;;;;5006437;28;20569;-67
2021/03/19 00:29:40;;;;;;;2.50;2.30;;;2.30;99.90;;;;;;5007740;28;20578;-67
2021/03/19 00:32:06;;;;;;;3.10;2.40;;;2.30;99.90;;;;;;5008910;28;20652;-68
2021/03/19 00:34:34;;;;;;;2.73;2.33;;;2.30;99.90;;;;;;4996733;28;20659;-65
2021/03/19 00:37:04;;;;;;;3.53;2.60;;;2.30;99.90;;;;;;5006731;28;20207;-65
2021/03/19 00:39:43;;;;;;;2.80;2.60;;;2.20;99.90;;;;;;5007831;28;20625;-68
2021/03/19 00:45:03;;;;;;;4.30;2.40;;;2.20;99.90;;;;;;5009659;28;20564;-65
2021/03/19 00:47:32;;;;;;;2.53;2.33;;;2.20;99.90;;;;;;5010806;28;20681;-65
2021/03/19 00:50:05;;;;;;;4.17;2.10;;;2.20;99.90;;;;;;5008341;28;20728;-65
2021/03/19 00:52:38;;;;;;;3.63;2.80;;;2.20;99.90;;;;;;5006726;28;20656;-66
2021/03/19 00:55:17;;;;;;;3.50;2.00;;;2.20;99.90;;;;;;5005584;28;20644;-66
2021/03/19 00:57:45;;;;;;;2.47;2.17;;;2.20;99.90;;;;;;4992700;28;20714;-66
2021/03/19 01:00:13;;;;;;;2.67;2.27;;;2.20;99.90;;;;;;5005412;28;20685;-66
2021/03/19 01:02:46;;;;;;;3.63;2.67;;;2.20;99.90;;;;;;4999572;28;20643;-66
2021/03/19 01:05:21;;;;;;;3.80;2.27;;;2.20;99.90;;;;;;5002047;28;20705;-66
2021/03/19 01:07:55;;;;;;;2.63;2.03;;;2.10;99.90;;;;;;4984534;28;20885;-65
2021/03/19 01:10:34;;;;;;;3.00;2.00;;;2.10;99.90;;;;;;5006415;28;20620;-65
2021/03/19 01:13:00;;;;;;;2.60;2.40;;;2.10;99.90;;;;;;5003206;28;21022;-65
2021/03/19 01:15:37;;;;;;;2.20;2.00;;;2.10;99.90;;;;;;5011527;28;20662;-65
2021/03/19 01:18:10;;;;;;;3.57;2.77;;;2.10;99.90;;;;;;5007799;28;20193;-66
2021/03/19 01:20:44;;;;;;;2.87;2.10;;;2.00;99.90;;;;;;5004052;28;21232;-66
2021/03/19 01:23:21;;;;;;;2.77;2.57;;;2.00;99.90;;;;;;5004881;28;20649;-66
2021/03/19 01:25:49;;;;;;;2.90;2.70;;;2.00;99.90;;;;;;5004946;28;20585;-65
2021/03/19 01:28:18;;;;;;;2.73;2.50;;;2.00;99.90;;;;;;5015455;28;20719;-66
2021/03/19 01:30:46;;;;;;;3.30;2.70;;;1.90;99.90;;;;;;5001901;28;20611;-66
2021/03/19 01:33:15;;;;;;;3.00;2.70;;;1.90;99.90;;;;;;5006270;28;20757;-66
2021/03/19 01:35:45;;;;;;;3.17;2.67;;;1.90;99.90;;;;;;5015769;28;20624;-65
2021/03/19 01:38:20;;;;;;;2.93;2.50;;;1.80;99.90;;;;;;4998124;28;20631;-66
2021/03/19 01:40:50;;;;;;;2.53;2.30;;;1.90;99.90;;;;;;5015198;28;20587;-66
2021/03/19 01:43:47;;;;;;;2.90;2.70;;;1.80;99.90;;;;;;5013277;28;20647;-66
2021/03/19 01:46:53;;;;;;;3.93;2.60;;;1.80;99.90;;;;;;5018016;28;21275;-65
2021/03/19 01:49:59;;;;;;;2.40;2.20;;;1.80;99.90;;;;;;5017006;28;20623;-65
2021/03/19 01:53:03;;;;;;;2.90;2.60;;;1.80;99.90;;;;;;5015422;28;21363;-65
2021/03/19 01:56:07;;;;;;;2.57;2.37;;;1.70;99.90;;;;;;5013690;28;20663;-65
2021/03/19 01:59:10;;;;;;;3.27;2.90;;;1.70;99.90;;;;;;4999217;28;20769;-65
2021/03/19 02:02:16;;;;;;;3.00;2.70;;;1.70;99.90;;;;;;5017695;28;20659;-65
2021/03/19 02:05:18;;;;;;;3.07;2.77;;;1.60;99.90;;;;;;5014499;28;20690;-65
2021/03/19 02:08:24;;;;;;;2.97;2.67;;;1.60;99.90;;;;;;5013075;28;20947;-66
2021/03/19 02:11:27;;;;;;;2.73;2.53;;;1.60;99.90;;;;;;5019748;28;20697;-65
2021/03/19 02:14:31;;;;;;;2.83;2.63;;;1.60;99.90;;;;;;5016822;28;20685;-65
2021/03/19 02:17:34;;;;;;;3.27;2.60;;;1.60;99.90;;;;;;5017455;28;20647;-65
2021/03/19 02:20:37;;;;;;;6.97;2.63;;;1.50;99.90;;;;;;5018056;28;20685;-65
2021/03/19 02:23:43;;;;;;;4.87;2.83;;;1.50;99.90;;;;;;4999196;28;20785;-65
2021/03/19 02:26:45;;;;;;;2.80;2.10;;;1.50;99.90;;;;;;5013441;28;20619;-65
2021/03/19 02:29:49;;;;;;;4.27;2.87;;;1.50;99.90;;;;;;4999532;28;20633;-65
2021/03/19 02:32:20;;;;;;;2.87;2.57;;;1.50;99.90;;;;;;5012271;28;20690;-65
2021/03/19 02:35:02;;;;;;;4.80;2.80;;;1.40;99.90;;;;;;4998796;28;21750;-65
2021/03/19 02:37:37;;;;;;;3.00;2.70;;;1.40;99.90;;;;;;5014868;28;20616;-65
2021/03/19 02:40:18;;;;;;;3.10;2.80;;;1.40;99.90;;;;;;4998605;28;21348;-66
2021/03/19 02:42:49;;;;;;;4.07;2.80;;;1.40;99.90;;;;;;5001786;28;21055;-65
2021/03/19 02:45:25;;;;;;;3.57;2.70;;;1.40;99.90;;;;;;5018814;28;20584;-65
2021/03/19 02:47:54;;;;;;;3.37;3.00;;;1.30;99.90;;;;;;5000142;28;20647;-64
2021/03/19 02:50:25;;;;;;;3.13;2.93;;;1.30;99.90;;;;;;4996486;28;22240;-64
2021/03/19 02:52:55;;;;;;;5.57;4.00;;;1.30;99.90;;;;;;5009452;28;21078;-64
2021/03/19 02:55:23;;;;;;;3.90;3.50;;;1.30;99.90;;;;;;5010343;28;21161;-64
2021/03/19 02:57:53;;;;;;;3.37;2.97;;;1.30;99.90;;;;;;5014984;28;20748;-64
2021/03/19 03:00:32;;;;;;;3.50;3.20;;;1.30;99.90;;;;;;5013918;28;20620;-64
2021/03/19 03:03:01;;;;;;;4.23;3.20;;;1.30;99.90;;;;;;5016778;28;21138;-64
2021/03/19 03:05:26;;;;;;;3.27;2.97;;;1.30;99.90;;;;;;5013016;28;20626;-64
2021/03/19 03:07:56;;;;;;;3.47;3.17;;;1.30;99.90;;;;;;5015161;28;20608;-64
2021/03/19 03:10:34;;;;;;;3.43;3.13;;;1.20;99.90;;;;;;5017477;28;20215;-64
2021/03/19 03:13:05;;;;;;;5.03;3.23;;;1.20;99.90;;;;;;5012431;28;20705;-64
2021/03/19 03:16:07;;;;;;;3.90;3.30;;;1.20;99.90;;;;;;5013384;28;20650;-64
2021/03/19 03:18:33;;;;;;;3.50;3.20;;;1.20;99.90;;;;;;5013620;28;20722;-64
2021/03/19 03:21:01;;;;;;;4.77;3.53;;;1.10;99.90;;;;;;5011416;28;21237;-63
2021/03/19 03:23:34;;;;;;;3.53;3.10;;;1.10;99.90;;;;;;5013844;28;20652;-64
2021/03/19 03:26:06;;;;;;;3.60;3.30;;;1.10;99.90;;;;;;5013201;28;20607;-64
2021/03/19 03:28:37;;;;;;;3.07;2.87;;;1.10;99.90;;;;;;5015147;28;20602;-65
2021/03/19 03:31:08;;;;;;;4.50;3.57;;;1.10;99.90;;;;;;5005719;28;20658;-67
2021/03/19 03:33:34;;;;;;;5.13;3.43;;;1.10;99.90;;;;;;5017214;28;20671;-66
2021/03/19 03:36:03;;;;;;;3.60;3.27;;;1.10;99.90;;;;;;5000010;28;20990;-66
2021/03/19 03:38:37;;;;;;;3.73;3.43;;;1.10;99.90;;;;;;5011862;28;20193;-66
2021/03/19 03:41:06;;;;;;;4.13;3.73;;;1.10;99.90;;;;;;5012420;28;20645;-66
2021/03/19 03:43:40;;;;;;;4.70;3.60;;;1.10;99.90;;;;;;5012143;28;20651;-66
2021/03/19 03:46:16;;;;;;;3.80;3.37;;;1.10;99.90;;;;;;5014901;28;21217;-66
2021/03/19 03:48:46;;;;;;;4.70;3.80;;;1.00;99.90;;;;;;5013659;28;20596;-66
2021/03/19 03:51:18;;;;;;;3.57;3.27;;;1.00;99.90;;;;;;5010803;28;20686;-66
2021/03/19 03:53:46;;;;;;;3.97;3.50;;;1.00;99.90;;;;;;5014021;28;20651;-66
2021/03/19 03:56:16;;;;;;;4.10;3.27;;;1.00;99.90;;;;;;5013841;28;20658;-66
2021/03/19 03:58:50;;;;;;;4.67;3.70;;;1.10;99.90;;;;;;5013978;28;21006;-66
2021/03/19 04:01:27;;;;;;;4.47;3.90;;;1.00;99.90;;;;;;5010554;28;20768;-66
2021/03/19 04:03:58;;;;;;;4.77;3.90;;;1.00;99.90;;;;;;5013382;28;21050;-66
2021/03/19 04:06:26;;;;;;;4.80;4.20;;;1.00;99.90;;;;;;4997336;28;20960;-66
2021/03/19 04:08:57;;;;;;;4.50;4.10;;;1.00;99.90;;;;;;5013778;28;21198;-66
2021/03/19 04:11:29;;;;;;;6.53;4.60;;;1.00;99.90;;;;;;5000145;28;20689;-66
2021/03/19 04:13:57;;;;;;;5.67;4.30;;;1.00;99.90;;;;;;5014518;28;21104;-66
2021/03/19 04:16:42;;;;;;;6.03;5.00;;;1.00;99.90;;;;;;5012646;28;21215;-66
2021/03/19 04:19:13;;;;;;;4.77;4.30;;;1.00;99.90;;;;;;5014827;28;20604;-66
2021/03/19 04:21:48;;;;;;;5.40;4.87;;;1.00;99.90;;;;;;4993721;28;20714;-66
2021/03/19 04:24:19;;;;;;;5.70;5.10;;;1.00;99.90;;;;;;5010914;28;20669;-66
2021/03/19 04:26:52;;;;;;;8.93;4.67;;;1.00;99.90;;;;;;5017280;28;20669;-66
2021/03/19 04:29:19;;;;;;;5.60;4.90;;;1.00;99.90;;;;;;4995714;28;20658;-65
2021/03/19 04:31:55;;;;;;;5.70;5.20;;;1.00;99.90;;;;;;5015614;28;23251;-66
2021/03/19 04:34:25;;;;;;;5.67;5.17;;;1.00;99.90;;;;;;5011523;28;21314;-66
2021/03/19 04:36:59;;;;;;;6.17;5.57;;;1.00;99.90;;;;;;4998180;28;20744;-67
2021/03/19 04:39:30;;;;;;;6.70;6.10;;;1.10;99.90;;;;;;5015198;28;20637;-66
2021/03/19 04:42:00;;;;;;;6.10;5.10;;;1.10;99.90;;;;;;5015260;28;21227;-66
2021/03/19 04:44:33;;;;;;;5.87;5.30;;;1.10;99.90;;;;;;5000021;28;20619;-66
2021/03/19 04:47:09;;;;;;;7.90;5.47;;;1.10;99.90;;;;;;5013882;28;20611;-66
2021/03/19 04:49:39;;;;;;;5.73;5.13;;;1.10;99.90;;;;;;4996055;28;20698;-66
2021/03/19 04:52:13;;;;;;;6.40;5.70;;;1.10;99.90;;;;;;5013315;28;20773;-66
2021/03/19 04:54:45;;;;;;;5.93;5.33;;;1.20;99.90;;;;;;5018815;28;20693;-66
2021/03/19 04:57:10;;;;;;;6.03;5.43;;;1.10;99.90;;;;;;5000463;28;21359;-66
2021/03/19 04:59:36;;;;;;;6.37;5.77;;;1.10;99.90;;;;;;4999853;28;20982;-67
2021/03/19 05:02:03;;;;;;;6.93;6.33;;;1.10;99.90;;;;;;5001133;28;20266;-65
2021/03/19 05:04:35;;;;;;;6.97;6.27;;;1.10;99.90;;;;;;5019618;28;20624;-66
2021/03/19 05:07:09;;;;;;;7.57;6.67;;;1.10;99.90;;;;;;5019180;28;21255;-66
2021/03/19 05:09:35;;;;;;;7.07;6.40;;;1.10;99.90;;;;;;5016520;28;21208;-67
2021/03/19 05:12:12;;;;;;;7.00;6.30;;;1.10;99.90;;;;;;5013719;28;20739;-66
2021/03/19 05:14:40;;;;;;;6.47;5.87;;;1.10;99.90;;;;;;5019610;28;20626;-67
2021/03/19 05:17:13;;;;;;;6.33;5.73;;;1.10;99.90;;;;;;5015917;28;20969;-66
2021/03/19 05:19:42;;;;;;;8.30;6.67;;;1.10;99.90;;;;;;5020169;28;20575;-66
2021/03/19 05:22:13;;;;;;;7.77;7.07;;;1.10;99.90;;;;;;5001376;28;20685;-64
2021/03/19 05:24:47;;;;;;;6.93;5.83;;;1.00;99.90;;;;;;5017288;28;20773;-64
2021/03/19 05:27:29;;;;;;;7.67;6.70;;;1.10;99.90;;;;;;5007211;28;21305;-66
2021/03/19 05:30:01;;;;;;;7.03;6.43;;;1.00;99.90;;;;;;5004575;28;20684;-66
2021/03/19 05:32:27;;;;;;;7.70;6.90;;;1.10;99.90;;;;;;5017377;28;20704;-66
2021/03/19 05:34:57;;;;;;;7.40;6.70;;;1.10;99.90;;;;;;5019502;28;20721;-66
2021/03/19 05:37:26;;;;;;;7.00;6.30;;;1.10;99.90;;;;;;5019750;28;20619;-66
2021/03/19 05:40:01;;;;;;;7.97;7.17;;;1.10;99.90;;;;;;5004161;28;20675;-66
2021/03/19 05:42:46;;;;;;;8.40;7.60;;;1.20;99.90;;;;;;5013311;28;20670;-66
2021/03/19 05:45:20;;;;;;;7.77;6.97;;;1.20;99.90;;;;;;5017696;28;20693;-66
2021/03/19 05:47:49;;;;;;;9.03;7.63;;;1.30;99.90;;;;;;5014769;28;20635;-66
2021/03/19 05:50:33;;;;;;;7.90;7.10;;;1.30;99.90;;;;;;5008214;28;20644;-66
2021/03/19 05:53:21;;;;;;;8.00;7.30;;;1.30;99.90;;;;;;4998643;28;21241;-66
2021/03/19 05:55:47;;;;;;;8.40;7.47;;;1.40;99.90;;;;;;4996513;28;20667;-66
2021/03/19 05:58:28;;;;;;;8.70;7.80;;;1.40;99.90;;;;;;5013419;28;20974;-66
2021/03/19 06:00:58;;;;;;;9.80;8.40;;;1.40;99.90;;;;;;5012403;28;20706;-66
2021/03/19 06:03:26;;;;;;;8.73;7.70;;;1.40;99.90;;;;;;5011513;28;20639;-66
2021/03/19 06:06:06;;;;;;;8.73;7.73;;;1.40;99.90;;;;;;4991245;28;20683;-66
2021/03/19 06:08:50;;;;;;;10.43;8.27;;;1.50;99.90;;;;;;5009377;28;20608;-67
2021/03/19 06:11:25;;;;;;;9.77;8.77;;;1.50;99.90;;;;;;4981144;28;20653;-66
2021/03/19 06:14:03;;;;;;;9.07;8.17;;;1.50;99.90;;;;;;5004118;28;20720;-66
2021/03/19 06:16:34;;;;;;;8.73;7.77;;;1.50;99.90;;;;;;5012898;28;20669;-66
2021/03/19 06:19:29;;;;;;;9.80;8.80;;;1.60;99.90;;;;;;5023578;28;21235;-67
2021/03/19 06:22:26;;;;;;;9.37;8.50;;;1.60;99.90;;;;;;4988781;28;21316;-67
2021/03/19 06:24:56;;;;;;;10.13;8.37;;;1.60;99.90;;;;;;5006250;28;21019;-66
2021/03/19 06:27:44;;;;;;;10.53;7.93;;;1.70;99.90;;;;;;5010334;28;20638;-66
2021/03/19 06:30:40;;;;;;;11.40;8.97;;;1.70;99.90;;;;;;5005590;28;20697;-65
2021/03/19 06:33:14;;;;;;;12.10;8.87;;;1.80;99.90;;;;;;5003611;28;20647;-66
2021/03/19 06:36:30;;;;;;;11.70;9.03;;;1.80;99.90;;;;;;5007545;28;20679;-66
2021/03/19 06:39:19;;;;;;;11.47;9.50;;;1.90;99.90;;;;;;4971245;28;20731;-65
2021/03/19 06:42:00;;;;;;;12.03;9.23;;;1.90;99.90;;;;;;5021318;28;20717;-65
2021/03/19 06:44:29;;;;;;;11.37;8.90;;;2.00;99.90;;;;;;5012819;28;20671;-66
2021/03/19 06:47:08;;;;;;;11.60;8.97;;;2.00;99.90;;;;;;4990116;28;20759;-66
2021/03/19 06:49:54;;;;;;;11.77;9.23;;;2.10;99.90;;;;;;5003624;28;20646;-66
2021/03/19 06:52:27;;;;;;;10.60;9.33;;;2.10;99.90;;;;;;5003908;28;20635;-66
2021/03/19 06:54:58;;;;;;;11.40;9.67;;;2.10;99.90;;;;;;5006603;28;21015;-66
2021/03/19 06:57:42;;;;;;;10.70;9.00;;;2.20;99.90;;;;;;4993228;28;20768;-66
2021/03/19 07:00:11;;;;;;;9.17;8.10;;;2.20;99.90;;;;;;5011202;28;20603;-65
2021/03/19 07:02:40;;;;;;;10.53;9.37;;;2.30;99.90;;;;;;4995218;28;20676;-66
2021/03/19 07:05:57;;;;;;;10.47;8.43;;;2.30;99.90;;;;;;5011509;28;20635;-66
2021/03/19 07:08:38;;;;;;;10.20;9.10;;;2.30;99.90;;;;;;5011622;28;20645;-67
2021/03/19 07:11:29;;;;;;;12.57;9.53;;;2.40;99.90;;;;;;4996790;28;20660;-66
2021/03/19 07:14:33;;;;;;;11.93;9.87;;;2.50;99.90;;;;;;4992664;28;21064;-65
2021/03/19 07:17:24;;;;;;;12.63;9.60;;;2.60;99.90;;;;;;4990718;28;20619;-66
2021/03/19 07:20:31;;;;;;;10.50;9.40;;;2.60;99.90;;;;;;4996850;28;20589;-66
2021/03/19 07:23:15;;;;;;;9.17;8.20;;;2.70;99.90;;;;;;5004313;28;20645;-66
2021/03/19 07:26:01;;;;;;;10.03;8.40;;;2.80;99.90;;;;;;5011197;28;20641;-66
2021/03/19 07:28:41;;;;;;;10.80;8.70;;;2.80;99.90;;;;;;5007845;28;20691;-67
2021/03/19 07:31:09;;;;;;;10.90;8.90;;;2.90;99.90;;;;;;5004349;28;20714;-66
2021/03/19 07:33:56;;;;;;;11.50;8.70;;;3.00;99.90;;;;;;5003699;28;20643;-66
2021/03/19 07:36:49;;;;;;;9.60;8.53;;;3.20;99.90;;;;;;4995724;28;20739;-66
2021/03/19 07:39:33;;;;;;;9.00;8.00;;;3.20;99.90;;;;;;5010866;28;20580;-67
2021/03/19 07:42:09;;;;;;;8.83;7.73;;;3.30;99.90;;;;;;5010114;28;20711;-66
2021/03/19 07:44:53;;;;;;;10.50;7.47;;;3.30;99.90;;;;;;5010524;28;20624;-67
2021/03/19 07:47:52;;;;;;;9.17;8.00;;;3.40;99.90;;;;;;5011104;28;20592;-66
2021/03/19 07:50:32;;;;;;;12.00;9.10;;;3.50;99.90;;;;;;5010782;28;20974;-66
2021/03/19 07:53:02;;;;;;;10.60;8.63;;;3.50;99.90;;;;;;5002217;28;20659;-66
2021/03/19 07:55:59;;;;;;;8.70;7.80;;;3.60;99.90;;;;;;5005084;28;21281;-66
2021/03/19 07:58:53;;;;;;;10.70;8.20;;;3.70;99.90;;;;;;4991342;28;20608;-66
2021/03/19 08:01:28;;;;;;;8.40;7.30;;;3.80;99.90;;;;;;5009739;28;21255;-66
2021/03/19 08:04:35;;;;;;;7.83;6.90;;;3.90;99.90;;;;;;5006031;28;20643;-66
2021/03/19 08:07:15;;;;;;;8.20;7.10;;;4.00;99.90;;;;;;5008812;28;20659;-66
2021/03/19 08:10:22;;;;;;;8.53;6.20;;;4.20;99.90;;;;;;5008179;28;20681;-67
2021/03/19 08:13:01;;;;;;;9.03;6.23;;;4.30;99.90;;;;;;4978138;28;21081;-67
2021/03/19 08:15:36;;;;;;;7.37;6.47;;;4.40;99.90;;;;;;5007438;28;20663;-66
2021/03/19 08:18:21;;;;;;;9.50;7.03;;;4.50;99.90;;;;;;4994186;28;21003;-67
2021/03/19 08:21:03;;;;;;;9.47;6.40;;;4.60;99.90;;;;;;5009205;28;20595;-67
2021/03/19 08:23:35;;;;;;;9.50;5.80;;;4.70;99.90;;;;;;5005799;28;20770;-66
2021/03/19 08:26:00;;;;;;;7.90;5.53;;;4.70;99.90;;;;;;5008636;28;21431;-67
2021/03/19 08:28:54;;;;;;;7.30;6.10;;;4.70;99.90;;;;;;5014042;28;20666;-66
2021/03/19 08:31:41;;;;;;;5.93;5.33;;;4.80;99.90;;;;;;5015394;28;20201;-67
2021/03/19 08:34:21;;;;;;;7.70;5.43;;;4.80;99.90;;;;;;5009951;28;22151;-66
2021/03/19 08:36:52;;;;;;;6.37;4.80;;;4.80;99.90;;;;;;5011252;28;20620;-66
2021/03/19 08:39:45;;;;;;;8.77;6.40;;;4.90;99.90;;;;;;5004643;28;20603;-66
2021/03/19 08:42:16;;;;;;;6.20;5.50;;;5.00;99.90;;;;;;5007858;28;20658;-66
2021/03/19 08:44:42;;;;;;;7.77;5.90;;;5.10;99.90;;;;;;5015428;28;20630;-66
2021/03/19 08:47:26;;;;;;;9.40;5.90;;;5.20;99.90;;;;;;5012600;28;20620;-66
2021/03/19 08:50:12;;;;;;;7.57;5.23;;;5.20;99.90;;;;;;5017451;28;20685;-66
2021/03/19 08:52:40;;;;;;;5.80;4.90;;;5.40;99.90;;;;;;5014655;28;20952;-65
2021/03/19 08:55:12;;;;;;;5.57;4.00;;;5.40;99.90;;;;;;5008963;28;20656;-66
2021/03/19 08:57:40;;;;;;;5.40;4.90;;;5.50;99.90;;;;;;5014538;28;20703;-66
2021/03/19 09:00:13;;;;;;;8.27;6.07;;;5.50;99.90;;;;;;5015195;28;20698;-66
2021/03/19 09:03:11;;;;;;;6.53;5.10;;;5.70;99.90;;;;;;5014229;28;20716;-66
2021/03/19 09:06:05;;;;;;;4.00;3.60;;;5.80;99.90;;;;;;4994091;28;20638;-66
2021/03/19 09:08:43;;;;;;;3.93;3.50;;;5.90;99.90;;;;;;5010773;28;21241;-66
2021/03/19 09:11:14;;;;;;;4.10;3.70;;;6.00;99.90;;;;;;5010707;28;20646;-67
2021/03/19 09:13:59;;;;;;;4.90;3.50;;;6.00;99.90;;;;;;5013258;28;20703;-66
2021/03/19 09:16:48;;;;;;;3.93;3.50;;;6.10;99.90;;;;;;5014971;28;20700;-66
2021/03/19 09:19:32;;;;;;;2.80;2.60;;;6.20;99.90;;;;;;5010405;28;21061;-66
2021/03/19 09:22:20;;;;;;;3.60;2.50;;;6.30;99.90;;;;;;5008630;28;20663;-65
2021/03/19 09:25:11;;;;;;;3.60;3.30;;;6.30;99.90;;;;;;5014248;28;20607;-66
2021/03/19 09:27:37;;;;;;;3.57;2.20;;;6.40;99.90;;;;;;4993567;28;20623;-66
2021/03/19 09:30:49;;;;;;;2.00;1.90;;;6.40;99.90;;;;;;5006842;28;20626;-66
2021/03/19 09:33:42;;;;;;;4.20;2.70;;;6.40;99.90;;;;;;5003770;28;20639;-65
2021/03/19 09:36:46;;;;;;;4.63;2.20;;;6.50;99.90;;;;;;5026705;28;20615;-66
2021/03/19 09:39:51;;;;;;;3.10;2.20;;;6.60;99.90;;;;;;5014324;28;20643;-66
2021/03/19 09:42:20;;;;;;;2.70;2.00;;;6.60;99.90;;;;;;5018414;28;20671;-66
2021/03/19 09:44:52;;;;;;;1.90;1.80;;;6.60;99.90;;;;;;5012299;28;21077;-66
2021/03/19 09:47:26;;;;;;;2.83;1.97;;;6.60;99.90;;;;;;5011962;28;20609;-66
2021/03/19 09:50:24;;;;;;;2.17;1.90;;;6.70;99.90;;;;;;5013333;28;21134;-65
2021/03/19 09:53:00;;;;;;;2.90;1.80;;;6.60;99.90;;;;;;5006842;28;20708;-67
2021/03/19 09:55:36;;;;;;;2.47;1.80;;;6.70;99.90;;;;;;4996112;28;20642;-66
2021/03/19 09:58:19;;;;;;;1.60;1.50;;;6.70;99.90;;;;;;5008826;28;20604;-66
2021/03/19 10:00:56;;;;;;;1.83;1.50;;;6.80;99.90;;;;;;5011493;28;21170;-66
2021/03/19 10:03:22;;;;;;;1.50;1.37;;;6.90;99.90;;;;;;5011703;28;21071;-66
2021/03/19 10:05:49;;;;;;;2.00;1.70;;;7.00;99.90;;;;;;5015553;28;20688;-66
2021/03/19 10:08:31;;;;;;;1.70;1.50;;;7.00;99.90;;;;;;5014949;28;21391;-67
2021/03/19 10:11:09;;;;;;;1.67;1.43;;;7.10;99.90;;;;;;5005572;28;20628;-66
2021/03/19 10:13:35;;;;;;;1.77;1.10;;;7.10;99.90;;;;;;5019148;28;20662;-66
2021/03/19 10:16:01;;;;;;;1.33;1.23;;;7.00;99.90;;;;;;5013561;28;20623;-66
2021/03/19 10:18:34;;;;;;;1.63;1.00;;;6.90;99.90;;;;;;5011759;28;20620;-66
2021/03/19 10:21:09;;;;;;;1.40;1.30;;;7.00;99.90;;;;;;5009428;28;20651;-66
2021/03/19 10:23:38;;;;;;;1.30;1.20;;;7.10;99.90;;;;;;5009703;28;20765;-66
2021/03/19 10:26:34;;;;;;;1.20;1.10;;;7.20;99.90;;;;;;4995376;28;20615;-67
2021/03/19 10:29:14;;;;;;;1.10;1.10;;;7.20;99.90;;;;;;4988520;28;20639;-66
2021/03/19 10:31:49;;;;;;;2.10;1.10;;;7.40;99.90;;;;;;5009057;28;20645;-66
2021/03/19 10:34:34;;;;;;;1.50;1.40;;;7.50;99.90;;;;;;5009046;28;20649;-66
2021/03/19 10:37:10;;;;;;;2.00;1.13;;;7.60;99.90;;;;;;5012623;28;20619;-66
2021/03/19 10:39:51;;;;;;;0.80;0.80;;;7.60;99.90;;;;;;5008186;28;20575;-66
2021/03/19 10:42:23;;;;;;;0.90;0.90;;;7.70;99.90;;;;;;5022125;28;20721;-66
2021/03/19 10:45:30;;;;;;;1.30;0.83;;;7.80;99.90;;;;;;5012165;28;21050;-66
2021/03/19 10:48:20;;;;;;;1.20;1.10;;;7.80;99.90;;;;;;5003526;28;20658;-66
2021/03/19 10:50:52;;;;;;;1.10;1.00;;;7.80;99.90;;;;;;5004014;28;21191;-67
2021/03/19 10:53:25;;;;;;;1.83;1.67;;;7.80;99.90;;;;;;4997642;28;20727;-66
2021/03/19 10:55:51;;;;;;;1.70;1.40;;;7.80;99.90;;;;;;5005367;28;20661;-66
2021/03/19 10:58:20;;;;;;;1.40;1.20;;;7.90;99.90;;;;;;5003111;28;20944;-67
2021/03/19 11:00:47;;;;;;;1.47;1.37;;;8.00;99.90;;;;;;4999536;28;20674;-66
2021/03/19 11:03:33;;;;;;;3.40;1.50;;;8.10;99.90;;;;;;5001689;28;21174;-67
2021/03/19 11:06:05;;;;;;;1.53;1.43;;;8.30;99.90;;;;;;4998247;28;20633;-65
2021/03/19 11:08:31;;;;;;;1.30;0.90;;;8.50;99.90;;;;;;5001734;28;20659;-66
2021/03/19 11:10:57;;;;;;;1.33;1.20;;;8.50;99.90;;;;;;4982674;28;20694;-67
2021/03/19 11:13:32;;;;;;;1.10;1.10;;;8.50;99.90;;;;;;5003163;28;20525;-67
2021/03/19 11:16:02;;;;;;;1.50;1.23;;;8.40;99.90;;;;;;5001671;28;20293;-67
2021/03/19 11:18:38;;;;;;;1.23;1.10;;;8.40;99.90;;;;;;4987666;28;20706;-67
2021/03/19 11:21:06;;;;;;;2.10;1.20;;;8.40;99.90;;;;;;4992466;28;20643;-67
2021/03/19 11:23:39;;;;;;;1.40;1.03;;;8.30;99.90;;;;;;4988626;28;20754;-67
2021/03/19 11:26:28;;;;;;;1.33;1.23;;;8.20;99.90;;;;;;5001542;28;20635;-65
2021/03/19 11:29:13;;;;;;;2.20;1.37;;;8.20;99.90;;;;;;4985256;28;20729;-67
2021/03/19 11:32:05;;;;;;;1.30;1.20;;;8.20;99.90;;;;;;4998915;28;20709;-66
2021/03/19 11:34:49;;;;;;;2.23;1.20;;;8.00;99.90;;;;;;4992124;28;20943;-66
2021/03/19 11:37:18;;;;;;;1.80;1.40;;;8.10;99.90;;;;;;4975486;23;20735;-69
2021/03/19 11:39:50;;;;;;;3.23;1.57;;;8.00;99.90;;;;;;4947397;28;20610;-69
2021/03/19 11:42:18;;;;;;;3.00;1.70;;;7.90;99.90;;;;;;4955423;28;20628;-70
2021/03/19 11:44:51;;;;;;;2.40;1.97;;;7.80;99.90;;;;;;4944621;28;20706;-68
2021/03/19 11:47:22;;;;;;;2.17;1.77;;;7.80;99.90;;;;;;4950198;28;20987;-68
2021/03/19 11:49:49;;;;;;;3.50;1.90;;;7.70;99.90;;;;;;4949989;28;20622;-68
2021/03/19 11:52:17;;;;;;;6.23;1.97;;;7.70;99.90;;;;;;4942796;28;20749;-68
2021/03/19 11:54:42;;;;;;;2.87;1.67;;;7.80;99.90;;;;;;4929595;28;21314;-68
2021/03/19 11:57:12;;;;;;;2.33;1.57;;;8.00;99.90;;;;;;4915803;28;20787;-68
2021/03/19 11:59:38;;;;;;;1.60;1.50;;;8.20;99.90;;;;;;4933693;28;23825;-69
2021/03/19 12:02:30;;;;;;;1.87;1.67;;;8.40;99.90;;;;;;4934145;28;20638;-68
2021/03/19 12:04:56;;;;;;;2.03;1.47;;;8.70;99.90;;;;;;4911875;28;20196;-68
2021/03/19 12:07:21;;;;;;;2.60;1.73;;;9.00;99.90;;;;;;4935489;28;20758;-68
2021/03/19 12:09:50;;;;;;;2.83;1.57;;;9.00;99.90;;;;;;4937050;28;20264;-68
2021/03/19 12:12:17;;;;;;;2.10;1.70;;;9.10;99.90;;;;;;4946337;28;20231;-69
2021/03/19 12:14:42;;;;;;;2.80;2.00;;;9.00;99.90;;;;;;4932376;28;20658;-68
2021/03/19 12:17:11;;;;;;;1.80;1.70;;;9.00;99.90;;;;;;4933944;28;20681;-69
2021/03/19 12:19:36;;;;;;;2.33;1.60;;;9.00;99.90;;;;;;4941164;28;20282;-69
2021/03/19 12:22:04;;;;;;;4.73;1.87;;;9.00;99.90;;;;;;4919157;28;20702;-68
2021/03/19 12:24:30;;;;;;;1.77;1.53;;;9.10;99.90;;;;;;4931327;28;20200;-69
2021/03/19 12:26:58;;;;;;;2.50;1.50;;;9.20;99.90;;;;;;4928508;28;20650;-68
2021/03/19 12:29:23;;;;;;;2.87;1.70;;;9.40;99.90;;;;;;4930403;28;20345;-70
2021/03/19 12:31:49;;;;;;;1.47;1.37;;;9.40;99.90;;;;;;4936761;28;20749;-70
2021/03/19 12:34:14;;;;;;;1.20;1.10;;;9.50;99.90;;;;;;4937913;28;20329;-71
2021/03/19 12:36:41;;;;;;;1.60;1.50;;;9.60;99.90;;;;;;4920740;28;20219;-71
2021/03/19 12:39:07;;;;;;;2.20;1.50;;;9.50;99.90;;;;;;4933143;28;20199;-70
2021/03/19 12:41:35;;;;;;;3.50;1.80;;;9.50;99.90;;;;;;4935550;28;20618;-70
2021/03/19 12:44:00;;;;;;;1.60;1.40;;;9.40;99.90;;;;;;4964957;28;20274;-69
2021/03/19 12:46:26;;;;;;;5.93;1.70;;;9.30;99.90;;;;;;4973274;28;20629;-69
2021/03/19 12:48:51;;;;;;;2.77;2.10;;;9.50;99.90;;;;;;4973990;28;20203;-70
2021/03/19 12:51:17;;;;;;;3.73;1.80;;;9.90;99.90;;;;;;4965353;28;20890;-69
2021/03/19 12:53:43;;;;;;;2.10;1.53;;;10.30;99.90;;;;;;4968065;28;20405;-69
2021/03/19 12:56:08;;;;;;;1.80;1.60;;;10.50;99.90;;;;;;4969931;28;20251;-71
2021/03/19 12:58:34;;;;;;;2.90;1.53;;;10.50;99.90;;;;;;4970357;28;21155;-70
2021/03/19 13:00:59;;;;;;;1.60;1.50;;;10.50;99.90;;;;;;4977034;28;20198;-69
2021/03/19 13:03:25;;;;;;;2.03;1.50;;;10.30;99.90;;;;;;4969410;28;20274;-70
2021/03/19 13:05:52;;;;;;;1.90;1.57;;;10.10;99.90;;;;;;4968640;28;20187;-69
2021/03/19 13:08:18;;;;;;;2.20;1.60;;;10.10;99.90;;;;;;4954202;28;21246;-69
2021/03/19 13:10:43;;;;;;;2.50;1.70;;;10.00;99.90;;;;;;4973776;28;20668;-69
2021/03/19 13:13:09;;;;;;;2.20;1.60;;;9.90;99.90;;;;;;4970666;28;20278;-69
2021/03/19 13:15:36;;;;;;;1.77;1.60;;;9.70;99.90;;;;;;4971221;28;20226;-69
2021/03/19 13:18:03;;;;;;;2.27;1.97;;;9.50;99.90;;;;;;4953465;28;20669;-70
2021/03/19 13:20:30;;;;;;;3.50;1.63;;;9.30;99.90;;;;;;4979076;28;20625;-69
2021/03/19 13:22:56;;;;;;;2.20;2.00;;;9.20;99.90;;;;;;4970075;28;21372;-69
2021/03/19 13:25:28;;;;;;;2.00;1.80;;;9.10;99.90;;;;;;4969807;28;20624;-69
2021/03/19 13:27:54;;;;;;;2.27;1.87;;;9.00;99.90;;;;;;4966210;28;20727;-69
2021/03/19 13:30:24;;;;;;;2.07;1.57;;;8.90;99.90;;;;;;4957251;28;20800;-69
2021/03/19 13:32:50;;;;;;;2.17;1.57;;;8.70;99.90;;;;;;4966844;28;20960;-69
2021/03/19 13:35:24;;;;;;;1.73;1.60;;;8.60;99.90;;;;;;4970439;28;20717;-69
2021/03/19 13:37:50;;;;;;;2.83;1.87;;;8.60;99.90;;;;;;4980145;28;20226;-70
2021/03/19 13:40:19;;;;;;;3.93;1.90;;;8.60;99.90;;;;;;4981423;28;20649;-69
2021/03/19 13:42:44;;;;;;;2.00;1.90;;;8.50;99.90;;;;;;4969672;28;20650;-70
2021/03/19 13:45:11;;;;;;;4.70;2.03;;;8.40;99.90;;;;;;4966737;28;21028;-69
2021/03/19 13:47:37;;;;;;;2.03;1.80;;;8.30;99.90;;;;;;4969512;28;20599;-69